aviador You're here:

YCBB Decoded Metar

in
Report Time2017-09-24 22:00:00
UTC Time2017-09-24 22:59:48
Flight Rules unknown UNKNOWN
Wind260° at 03 kt
W.Decomp.*RWY 29: 2.6 kt HW 1.5 kt LCW
RWY 19: 1.0 kt HW 2.8 kt RCW
W.Rank260° ranks 29
Current wind is below 260° avg. (8.6)
VisibilityN/A
Phenomena:N/A
Clouds:N/A
Expected CloudBase > 8,800 ft AGL from Temp-Dew spread
CeilingNone
Temp20°C
Dew Point-2°C (23% RH)
AAT16.7°C
QNH1012 hPa
Raw Report
METAR YCBB 242200Z AUTO 26003KT //// // ////// 20/M02 Q1012=

Extra information for YCBB:More info

Social comments